sensor_id;sensor_type;location;lat;lon;timestamp;pressure;altitude;pressure_sealevel;temperature;humidity
50434;BME280;36361;38.954;-9.002;2022-07-23T00:00:21;100801.03;;;21.37;76.61
50434;BME280;36361;38.954;-9.002;2022-07-23T00:01:22;100798.34;;;21.06;78.04
50434;BME280;36361;38.954;-9.002;2022-07-23T00:02:23;100804.69;;;21.12;78.24
50434;BME280;36361;38.954;-9.002;2022-07-23T00:03:24;100808.78;;;21.29;77.35
50434;BME280;36361;38.954;-9.002;2022-07-23T00:04:25;100797.19;;;21.17;77.63
50434;BME280;36361;38.954;-9.002;2022-07-23T00:05:25;100806.44;;;20.82;79.36
50434;BME280;36361;38.954;-9.002;2022-07-23T00:06:26;100801.19;;;20.86;79.32
50434;BME280;36361;38.954;-9.002;2022-07-23T00:07:27;100810.09;;;20.47;81.30
50434;BME280;36361;38.954;-9.002;2022-07-23T00:08:28;100800.66;;;20.38;81.75
50434;BME280;36361;38.954;-9.002;2022-07-23T00:09:28;100800.13;;;20.61;80.97
50434;BME280;36361;38.954;-9.002;2022-07-23T00:10:31;100797.63;;;20.70;80.62
50434;BME280;36361;38.954;-9.002;2022-07-23T00:11:32;100796.19;;;20.83;80.21
50434;BME280;36361;38.954;-9.002;2022-07-23T00:12:33;100795.66;;;20.86;79.91
50434;BME280;36361;38.954;-9.002;2022-07-23T00:13:34;100791.25;;;20.74;80.24
50434;BME280;36361;38.954;-9.002;2022-07-23T00:14:34;100790.13;;;20.81;80.35
50434;BME280;36361;38.954;-9.002;2022-07-23T00:15:38;100792.88;;;20.91;79.70
50434;BME280;36361;38.954;-9.002;2022-07-23T00:16:39;100798.47;;;20.60;80.72
50434;BME280;36361;38.954;-9.002;2022-07-23T00:17:39;100800.69;;;20.68;80.66
50434;BME280;36361;38.954;-9.002;2022-07-23T00:18:40;100797.03;;;20.83;80.27
50434;BME280;36361;38.954;-9.002;2022-07-23T00:19:41;100803.63;;;20.97;79.50
50434;BME280;36361;38.954;-9.002;2022-07-23T00:20:41;100803.34;;;20.99;79.29
50434;BME280;36361;38.954;-9.002;2022-07-23T00:21:42;100801.41;;;20.99;79.39
50434;BME280;36361;38.954;-9.002;2022-07-23T00:22:53;100805.53;;;21.02;79.33
50434;BME280;36361;38.954;-9.002;2022-07-23T00:23:54;100802.78;;;21.02;79.42
50434;BME280;36361;38.954;-9.002;2022-07-23T00:24:55;100800.59;;;20.99;79.39
50434;BME280;36361;38.954;-9.002;2022-07-23T00:25:57;100803.38;;;20.84;80.33
50434;BME280;36361;38.954;-9.002;2022-07-23T00:26:57;100800.63;;;20.89;80.11
50434;BME280;36361;38.954;-9.002;2022-07-23T00:27:59;100802.81;;;20.92;79.85
50434;BME280;36361;38.954;-9.002;2022-07-23T00:29:00;100799.84;;;20.68;80.93
50434;BME280;36361;38.954;-9.002;2022-07-23T00:30:01;100796.16;;;20.93;80.02
50434;BME280;36361;38.954;-9.002;2022-07-23T00:31:02;100798.09;;;20.97;79.65
50434;BME280;36361;38.954;-9.002;2022-07-23T00:32:08;100793.69;;;20.96;79.73
50434;BME280;36361;38.954;-9.002;2022-07-23T00:33:09;100797.31;;;20.82;80.22
50434;BME280;36361;38.954;-9.002;2022-07-23T00:34:14;100794.56;;;20.77;80.53
50434;BME280;36361;38.954;-9.002;2022-07-23T00:35:15;100799.78;;;20.83;80.37
50434;BME280;36361;38.954;-9.002;2022-07-23T00:36:16;100801.13;;;21.01;79.71
50434;BME280;36361;38.954;-9.002;2022-07-23T00:37:17;100798.69;;;20.94;79.78
50434;BME280;36361;38.954;-9.002;2022-07-23T00:38:17;100797.84;;;20.89;79.88
50434;BME280;36361;38.954;-9.002;2022-07-23T00:39:18;100792.88;;;20.96;79.93
50434;BME280;36361;38.954;-9.002;2022-07-23T00:40:19;100801.66;;;21.08;79.37
50434;BME280;36361;38.954;-9.002;2022-07-23T00:41:20;100798.34;;;21.06;79.35
50434;BME280;36361;38.954;-9.002;2022-07-23T00:42:21;100798.03;;;21.18;78.74
50434;BME280;36361;38.954;-9.002;2022-07-23T00:43:23;100802.25;;;21.00;79.80
50434;BME280;36361;38.954;-9.002;2022-07-23T00:44:26;100797.84;;;20.94;79.78
50434;BME280;36361;38.954;-9.002;2022-07-23T00:45:27;100803.34;;;21.04;79.68
50434;BME280;36361;38.954;-9.002;2022-07-23T00:46:28;100801.13;;;21.01;79.51
50434;BME280;36361;38.954;-9.002;2022-07-23T00:47:29;100791.81;;;20.66;81.31
50434;BME280;36361;38.954;-9.002;2022-07-23T00:48:30;100795.41;;;20.72;81.10
50434;BME280;36361;38.954;-9.002;2022-07-23T00:49:31;100790.72;;;20.57;81.83
50434;BME280;36361;38.954;-9.002;2022-07-23T00:50:32;100798.44;;;20.65;81.36
50434;BME280;36361;38.954;-9.002;2022-07-23T00:51:33;100795.44;;;20.52;82.03
50434;BME280;36361;38.954;-9.002;2022-07-23T00:52:35;100789.63;;;20.58;81.95
50434;BME280;36361;38.954;-9.002;2022-07-23T00:53:37;100798.47;;;20.40;82.71
50434;BME280;36361;38.954;-9.002;2022-07-23T00:54:38;100797.91;;;20.63;81.72
50434;BME280;36361;38.954;-9.002;2022-07-23T00:55:39;100792.09;;;20.70;81.54
50434;BME280;36361;38.954;-9.002;2022-07-23T00:56:42;100790.16;;;20.65;81.47
50434;BME280;36361;38.954;-9.002;2022-07-23T00:57:43;100787.97;;;20.67;81.70
50434;BME280;36361;38.954;-9.002;2022-07-23T00:58:44;100791.84;;;20.61;81.75
50434;BME280;36361;38.954;-9.002;2022-07-23T00:59:45;100794.06;;;20.34;83.02
50434;BME280;36361;38.954;-9.002;2022-07-23T01:00:46;100793.75;;;20.20;83.79
50434;BME280;36361;38.954;-9.002;2022-07-23T01:01:47;100795.16;;;20.28;83.93
50434;BME280;36361;38.954;-9.002;2022-07-23T01:02:50;100794.06;;;20.44;83.03
50434;BME280;36361;38.954;-9.002;2022-07-23T01:03:50;100797.94;;;20.43;83.16
50434;BME280;36361;38.954;-9.002;2022-07-23T01:04:53;100798.19;;;20.16;84.27
50434;BME280;36361;38.954;-9.002;2022-07-23T01:05:55;100778.84;;;20.31;84.14
50434;BME280;36361;38.954;-9.002;2022-07-23T01:06:56;100785.22;;;20.16;84.41
50434;BME280;36361;38.954;-9.002;2022-07-23T01:07:57;100779.13;;;20.35;84.09
50434;BME280;36361;38.954;-9.002;2022-07-23T01:08:58;100777.50;;;20.49;83.37
50434;BME280;36361;38.954;-9.002;2022-07-23T01:10:00;100772.50;;;20.31;83.99
50434;BME280;36361;38.954;-9.002;2022-07-23T01:11:01;100778.56;;;20.38;83.87
50434;BME280;36361;38.954;-9.002;2022-07-23T01:12:02;100770.84;;;20.50;83.41
50434;BME280;36361;38.954;-9.002;2022-07-23T01:13:08;100769.44;;;20.42;83.54
50434;BME280;36361;38.954;-9.002;2022-07-23T01:14:15;100773.31;;;20.52;83.26
50434;BME280;36361;38.954;-9.002;2022-07-23T01:15:16;100782.44;;;20.47;83.53
50434;BME280;36361;38.954;-9.002;2022-07-23T01:16:17;100764.50;;;20.50;83.35
50434;BME280;36361;38.954;-9.002;2022-07-23T01:17:18;100773.88;;;20.54;83.31
50434;BME280;36361;38.954;-9.002;2022-07-23T01:18:18;100783.81;;;20.55;83.27
50434;BME280;36361;38.954;-9.002;2022-07-23T01:19:20;100778.56;;;20.53;83.19
50434;BME280;36361;38.954;-9.002;2022-07-23T01:20:21;100776.34;;;20.55;83.52
50434;BME280;36361;38.954;-9.002;2022-07-23T01:21:22;100781.06;;;20.60;83.10
50434;BME280;36361;38.954;-9.002;2022-07-23T01:23:25;100776.06;;;20.62;83.16
50434;BME280;36361;38.954;-9.002;2022-07-23T01:24:29;100774.13;;;20.62;83.05
50434;BME280;36361;38.954;-9.002;2022-07-23T01:25:37;100771.97;;;20.49;83.69
50434;BME280;36361;38.954;-9.002;2022-07-23T01:26:44;100771.94;;;20.44;83.98
50434;BME280;36361;38.954;-9.002;2022-07-23T01:27:45;100765.56;;;20.54;83.80
50434;BME280;36361;38.954;-9.002;2022-07-23T01:28:46;100761.41;;;20.61;83.33
50434;BME280;36361;38.954;-9.002;2022-07-23T01:29:46;100768.31;;;20.69;82.95
50434;BME280;36361;38.954;-9.002;2022-07-23T01:30:52;100770.53;;;20.67;83.11
50434;BME280;36361;38.954;-9.002;2022-07-23T01:31:52;100775.25;;;20.61;83.27
50434;BME280;36361;38.954;-9.002;2022-07-23T01:32:54;100766.13;;;20.56;83.56
50434;BME280;36361;38.954;-9.002;2022-07-23T01:33:55;100770.00;;;20.60;83.50
50434;BME280;36361;38.954;-9.002;2022-07-23T01:34:56;100774.66;;;20.74;82.88
50434;BME280;36361;38.954;-9.002;2022-07-23T01:36:06;100773.53;;;20.76;82.53
50434;BME280;36361;38.954;-9.002;2022-07-23T01:37:07;100770.25;;;20.68;83.08
50434;BME280;36361;38.954;-9.002;2022-07-23T01:38:07;100778.00;;;20.56;83.26
50434;BME280;36361;38.954;-9.002;2022-07-23T01:39:09;100772.50;;;20.41;84.11
50434;BME280;36361;38.954;-9.002;2022-07-23T01:40:10;100775.78;;;20.38;84.15
50434;BME280;36361;38.954;-9.002;2022-07-23T01:41:11;100773.06;;;19.97;86.15
50434;BME280;36361;38.954;-9.002;2022-07-23T01:42:12;100764.75;;;19.92;86.78
50434;BME280;36361;38.954;-9.002;2022-07-23T01:43:12;100769.75;;;19.95;86.76
50434;BME280;36361;38.954;-9.002;2022-07-23T01:44:14;100772.50;;;20.00;86.88
50434;BME280;36361;38.954;-9.002;2022-07-23T01:45:16;100781.06;;;20.09;86.24
50434;BME280;36361;38.954;-9.002;2022-07-23T01:46:21;100774.16;;;20.01;86.54
50434;BME280;36361;38.954;-9.002;2022-07-23T01:47:25;100772.78;;;19.94;86.92
50434;BME280;36361;38.954;-9.002;2022-07-23T01:48:29;100772.50;;;20.00;86.82
50434;BME280;36361;38.954;-9.002;2022-07-23T01:49:48;100771.41;;;19.96;86.93
50434;BME280;36361;38.954;-9.002;2022-07-23T01:51:08;100763.63;;;19.93;87.38
50434;BME280;36361;38.954;-9.002;2022-07-23T01:52:16;100758.13;;;19.88;87.42
50434;BME280;36361;38.954;-9.002;2022-07-23T01:53:20;100768.63;;;20.01;87.00
50434;BME280;36361;38.954;-9.002;2022-07-23T01:54:21;100765.59;;;20.23;86.05
50434;BME280;36361;38.954;-9.002;2022-07-23T01:55:21;100760.88;;;19.93;87.25
50434;BME280;36361;38.954;-9.002;2022-07-23T01:56:23;100763.09;;;19.91;87.20
50434;BME280;36361;38.954;-9.002;2022-07-23T01:57:24;100771.66;;;20.00;87.03
50434;BME280;36361;38.954;-9.002;2022-07-23T01:58:26;100761.44;;;19.90;87.60
50434;BME280;36361;38.954;-9.002;2022-07-23T01:59:27;100771.41;;;19.96;87.35
50434;BME280;36361;38.954;-9.002;2022-07-23T02:00:28;100769.72;;;20.00;87.16
50434;BME280;36361;38.954;-9.002;2022-07-23T02:01:28;100766.13;;;20.00;87.25
50434;BME280;36361;38.954;-9.002;2022-07-23T02:02:30;100755.66;;;19.76;88.37
50434;BME280;36361;38.954;-9.002;2022-07-23T02:03:31;100766.41;;;19.78;88.28
50434;BME280;36361;38.954;-9.002;2022-07-23T02:04:32;100760.31;;;19.71;88.90
50434;BME280;36361;38.954;-9.002;2022-07-23T02:05:35;100763.66;;;19.78;88.53
50434;BME280;36361;38.954;-9.002;2022-07-23T02:06:36;100758.13;;;19.78;88.68
50434;BME280;36361;38.954;-9.002;2022-07-23T02:07:38;100765.88;;;19.96;87.91
50434;BME280;36361;38.954;-9.002;2022-07-23T02:08:38;100765.88;;;20.06;87.25
50434;BME280;36361;38.954;-9.002;2022-07-23T02:09:39;100766.44;;;20.13;86.64
50434;BME280;36361;38.954;-9.002;2022-07-23T02:10:40;100764.22;;;19.95;87.70
50434;BME280;36361;38.954;-9.002;2022-07-23T02:11:41;100763.13;;;20.06;87.12
50434;BME280;36361;38.954;-9.002;2022-07-23T02:12:42;100759.22;;;19.92;87.52
50434;BME280;36361;38.954;-9.002;2022-07-23T02:13:44;100764.50;;;19.99;87.38
50434;BME280;36361;38.954;-9.002;2022-07-23T02:14:44;100763.63;;;19.93;87.58
50434;BME280;36361;38.954;-9.002;2022-07-23T02:15:46;100762.00;;;20.07;87.13
50434;BME280;36361;38.954;-9.002;2022-07-23T02:16:47;100761.44;;;20.21;86.50
50434;BME280;36361;38.954;-9.002;2022-07-23T02:17:49;100759.22;;;20.17;86.28
50434;BME280;36361;38.954;-9.002;2022-07-23T02:18:49;100751.25;;;20.21;86.35
50434;BME280;36361;38.954;-9.002;2022-07-23T02:19:50;100755.09;;;20.30;85.88
50434;BME280;36361;38.954;-9.002;2022-07-23T02:20:51;100758.13;;;20.24;86.29
50434;BME280;36361;38.954;-9.002;2022-07-23T02:21:51;100749.84;;;20.13;86.69
50434;BME280;36361;38.954;-9.002;2022-07-23T02:22:53;100753.16;;;20.15;86.86
50434;BME280;36361;38.954;-9.002;2022-07-23T02:23:54;100758.69;;;20.26;86.42
50434;BME280;36361;38.954;-9.002;2022-07-23T02:24:54;100753.16;;;20.15;86.79
50434;BME280;36361;38.954;-9.002;2022-07-23T02:25:55;100754.53;;;20.23;86.53
50434;BME280;36361;38.954;-9.002;2022-07-23T02:26:56;100750.38;;;20.21;86.71
50434;BME280;36361;38.954;-9.002;2022-07-23T02:27:56;100747.63;;;20.26;86.66
50434;BME280;36361;38.954;-9.002;2022-07-23T02:28:57;100744.31;;;20.34;86.37
50434;BME280;36361;38.954;-9.002;2022-07-23T02:29:58;100755.91;;;20.41;85.86
50434;BME280;36361;38.954;-9.002;2022-07-23T02:30:59;100745.38;;;20.38;85.71
50434;BME280;36361;38.954;-9.002;2022-07-23T02:31:59;100759.22;;;20.53;85.27
50434;BME280;36361;38.954;-9.002;2022-07-23T02:33:00;100752.59;;;20.49;85.34
50434;BME280;36361;38.954;-9.002;2022-07-23T02:34:02;100749.28;;;20.47;85.39
50434;BME280;36361;38.954;-9.002;2022-07-23T02:35:03;100755.91;;;20.36;85.93
50434;BME280;36361;38.954;-9.002;2022-07-23T02:36:05;100766.41;;;20.34;85.94
50434;BME280;36361;38.954;-9.002;2022-07-23T02:37:06;100764.19;;;20.36;86.03
50434;BME280;36361;38.954;-9.002;2022-07-23T02:38:08;100751.47;;;20.35;86.03
50434;BME280;36361;38.954;-9.002;2022-07-23T02:39:10;100753.44;;;20.19;86.40
50434;BME280;36361;38.954;-9.002;2022-07-23T02:40:11;100761.44;;;20.21;86.55
50434;BME280;36361;38.954;-9.002;2022-07-23T02:41:14;100763.63;;;20.29;86.28
50434;BME280;36361;38.954;-9.002;2022-07-23T02:42:16;100753.41;;;20.34;85.94
50434;BME280;36361;38.954;-9.002;2022-07-23T02:43:17;100755.38;;;20.24;86.20
50434;BME280;36361;38.954;-9.002;2022-07-23T02:44:19;100757.03;;;20.25;86.72
50434;BME280;36361;38.954;-9.002;2022-07-23T02:45:24;100750.41;;;20.31;86.08
50434;BME280;36361;38.954;-9.002;2022-07-23T02:46:26;100756.19;;;20.24;86.59
50434;BME280;36361;38.954;-9.002;2022-07-23T02:47:28;100744.31;;;20.34;86.03
50434;BME280;36361;38.954;-9.002;2022-07-23T02:48:31;100754.81;;;20.32;85.94
50434;BME280;36361;38.954;-9.002;2022-07-23T02:49:33;100746.50;;;20.27;86.19
50434;BME280;36361;38.954;-9.002;2022-07-23T02:50:36;100748.72;;;20.30;86.09
50434;BME280;36361;38.954;-9.002;2022-07-23T02:51:37;100754.25;;;20.35;85.93
50434;BME280;36361;38.954;-9.002;2022-07-23T02:52:42;100745.97;;;20.35;85.76
50434;BME280;36361;38.954;-9.002;2022-07-23T02:53:42;100750.66;;;20.44;85.39
50434;BME280;36361;38.954;-9.002;2022-07-23T02:54:44;100755.38;;;20.44;85.25
50434;BME280;36361;38.954;-9.002;2022-07-23T02:55:48;100749.56;;;20.51;84.82
50434;BME280;36361;38.954;-9.002;2022-07-23T02:56:49;100752.59;;;20.44;85.11
50434;BME280;36361;38.954;-9.002;2022-07-23T02:57:51;100743.47;;;20.28;85.67
50434;BME280;36361;38.954;-9.002;2022-07-23T02:58:52;100748.72;;;20.20;86.25
50434;BME280;36361;38.954;-9.002;2022-07-23T02:59:55;100755.38;;;20.13;86.41
50434;BME280;36361;38.954;-9.002;2022-07-23T03:00:56;100745.97;;;20.25;86.11
50434;BME280;36361;38.954;-9.002;2022-07-23T03:01:59;100752.59;;;20.29;85.86
50434;BME280;36361;38.954;-9.002;2022-07-23T03:03:01;100750.41;;;20.31;86.01
50434;BME280;36361;38.954;-9.002;2022-07-23T03:04:02;100750.13;;;20.22;86.25
50434;BME280;36361;38.954;-9.002;2022-07-23T03:05:03;100749.00;;;20.33;85.74
50434;BME280;36361;38.954;-9.002;2022-07-23T03:06:04;100754.50;;;20.38;85.56
50434;BME280;36361;38.954;-9.002;2022-07-23T03:07:05;100753.16;;;20.15;86.29
50434;BME280;36361;38.954;-9.002;2022-07-23T03:08:06;100754.81;;;20.06;87.11
50434;BME280;36361;38.954;-9.002;2022-07-23T03:09:11;100751.50;;;20.14;86.88
50434;BME280;36361;38.954;-9.002;2022-07-23T03:10:13;100750.66;;;20.24;86.24
50434;BME280;36361;38.954;-9.002;2022-07-23T03:11:14;100752.06;;;20.16;86.58
50434;BME280;36361;38.954;-9.002;2022-07-23T03:12:15;100750.94;;;20.17;86.56
50434;BME280;36361;38.954;-9.002;2022-07-23T03:13:16;100750.97;;;20.12;86.76
50434;BME280;36361;38.954;-9.002;2022-07-23T03:14:17;100749.84;;;20.13;86.93
50434;BME280;36361;38.954;-9.002;2022-07-23T03:15:17;100747.09;;;20.03;87.00
50434;BME280;36361;38.954;-9.002;2022-07-23T03:16:18;100764.75;;;20.17;86.58
50434;BME280;36361;38.954;-9.002;2022-07-23T03:17:19;100753.41;;;20.29;86.11
50434;BME280;36361;38.954;-9.002;2022-07-23T03:18:21;100753.16;;;20.15;86.67
50434;BME280;36361;38.954;-9.002;2022-07-23T03:19:22;100765.03;;;20.16;86.60
50434;BME280;36361;38.954;-9.002;2022-07-23T03:20:22;100753.69;;;20.02;87.35
50434;BME280;36361;38.954;-9.002;2022-07-23T03:21:23;100758.16;;;20.03;87.53
50434;BME280;36361;38.954;-9.002;2022-07-23T03:22:23;100758.13;;;20.08;87.26
50434;BME280;36361;38.954;-9.002;2022-07-23T03:23:24;100755.63;;;20.27;86.43
50434;BME280;36361;38.954;-9.002;2022-07-23T03:24:25;100750.13;;;20.12;86.79
50434;BME280;36361;38.954;-9.002;2022-07-23T03:25:45;100748.75;;;20.14;87.10
50434;BME280;36361;38.954;-9.002;2022-07-23T03:26:49;100748.19;;;20.17;86.60
50434;BME280;36361;38.954;-9.002;2022-07-23T03:27:50;100746.81;;;19.84;88.30
50434;BME280;36361;38.954;-9.002;2022-07-23T03:28:51;100741.56;;;19.88;88.50
50434;BME280;36361;38.954;-9.002;2022-07-23T03:29:56;100744.31;;;20.08;87.60
50434;BME280;36361;38.954;-9.002;2022-07-23T03:30:57;100739.34;;;20.15;86.87
50434;BME280;36361;38.954;-9.002;2022-07-23T03:31:57;100732.97;;;20.20;86.65
50434;BME280;36361;38.954;-9.002;2022-07-23T03:32:58;100741.53;;;20.29;86.28
50434;BME280;36361;38.954;-9.002;2022-07-23T03:33:59;100734.09;;;20.14;86.62
50434;BME280;36361;38.954;-9.002;2022-07-23T03:35:00;100733.00;;;19.95;87.44
50434;BME280;36361;38.954;-9.002;2022-07-23T03:36:01;100738.22;;;20.11;86.85
50434;BME280;36361;38.954;-9.002;2022-07-23T03:37:05;100734.38;;;20.17;86.52
50434;BME280;36361;38.954;-9.002;2022-07-23T03:38:05;100734.09;;;20.19;86.31
50434;BME280;36361;38.954;-9.002;2022-07-23T03:39:06;100737.13;;;20.23;86.21
50434;BME280;36361;38.954;-9.002;2022-07-23T03:40:07;100738.50;;;20.30;85.83
50434;BME280;36361;38.954;-9.002;2022-07-23T03:41:08;100734.91;;;20.35;85.46
50434;BME280;36361;38.954;-9.002;2022-07-23T03:42:09;100738.78;;;20.24;85.83
50434;BME280;36361;38.954;-9.002;2022-07-23T03:43:10;100731.03;;;20.21;86.00
50434;BME280;36361;38.954;-9.002;2022-07-23T03:44:11;100732.44;;;20.13;86.32
50434;BME280;36361;38.954;-9.002;2022-07-23T03:45:12;100724.41;;;20.11;86.37
50434;BME280;36361;38.954;-9.002;2022-07-23T03:46:14;100729.41;;;20.14;86.28
50434;BME280;36361;38.954;-9.002;2022-07-23T03:47:14;100728.28;;;20.21;85.89
50434;BME280;36361;38.954;-9.002;2022-07-23T03:48:18;100734.38;;;19.97;87.07
50434;BME280;36361;38.954;-9.002;2022-07-23T03:49:19;100724.97;;;19.93;87.56
50434;BME280;36361;38.954;-9.002;2022-07-23T03:50:20;100736.03;;;20.13;86.55
50434;BME280;36361;38.954;-9.002;2022-07-23T03:51:21;100731.59;;;20.17;86.29
50434;BME280;36361;38.954;-9.002;2022-07-23T03:52:21;100728.59;;;20.04;86.67
50434;BME280;36361;38.954;-9.002;2022-07-23T03:53:22;100723.59;;;20.01;87.13
50434;BME280;36361;38.954;-9.002;2022-07-23T03:54:23;100732.69;;;20.11;86.51
50434;BME280;36361;38.954;-9.002;2022-07-23T03:55:24;100719.47;;;20.13;86.26
50434;BME280;36361;38.954;-9.002;2022-07-23T03:56:24;100724.41;;;20.01;86.65
50434;BME280;36361;38.954;-9.002;2022-07-23T03:57:26;100728.31;;;19.95;87.07
50434;BME280;36361;38.954;-9.002;2022-07-23T03:58:27;100728.31;;;19.95;87.24
50434;BME280;36361;38.954;-9.002;2022-07-23T03:59:28;100725.00;;;19.88;87.31
50434;BME280;36361;38.954;-9.002;2022-07-23T04:00:29;100714.75;;;20.09;86.88
50434;BME280;36361;38.954;-9.002;2022-07-23T04:01:30;100719.44;;;20.18;85.95
50434;BME280;36361;38.954;-9.002;2022-07-23T04:02:32;100723.06;;;20.14;86.12
50434;BME280;36361;38.954;-9.002;2022-07-23T04:03:33;100717.22;;;20.26;85.61
50434;BME280;36361;38.954;-9.002;2022-07-23T04:04:34;100717.81;;;19.87;87.28
50434;BME280;36361;38.954;-9.002;2022-07-23T04:05:35;100717.78;;;20.02;86.99
50434;BME280;36361;38.954;-9.002;2022-07-23T04:06:40;100713.94;;;20.08;86.70
50434;BME280;36361;38.954;-9.002;2022-07-23T04:07:44;100712.00;;;20.04;86.79
50434;BME280;36361;38.954;-9.002;2022-07-23T04:08:45;100711.16;;;19.93;87.34
50434;BME280;36361;38.954;-9.002;2022-07-23T04:09:46;100710.34;;;20.13;86.57
50434;BME280;36361;38.954;-9.002;2022-07-23T04:10:46;100713.94;;;20.08;86.69
50434;BME280;36361;38.954;-9.002;2022-07-23T04:11:48;100715.59;;;20.09;86.45
50434;BME280;36361;38.954;-9.002;2022-07-23T04:12:48;100711.19;;;20.13;86.32
50434;BME280;36361;38.954;-9.002;2022-07-23T04:13:49;100707.84;;;20.06;86.88
50434;BME280;36361;38.954;-9.002;2022-07-23T04:14:50;100708.97;;;20.05;86.77
50434;BME280;36361;38.954;-9.002;2022-07-23T04:15:51;100714.22;;;19.92;87.29
50434;BME280;36361;38.954;-9.002;2022-07-23T04:16:52;100716.16;;;19.86;87.45
50434;BME280;36361;38.954;-9.002;2022-07-23T04:17:54;100711.72;;;20.00;87.26
50434;BME280;36361;38.954;-9.002;2022-07-23T04:19:00;100716.69;;;20.13;86.53
50434;BME280;36361;38.954;-9.002;2022-07-23T04:20:04;100714.47;;;20.00;87.01
50434;BME280;36361;38.954;-9.002;2022-07-23T04:21:12;100715.06;;;19.87;87.58
50434;BME280;36361;38.954;-9.002;2022-07-23T04:22:13;100716.69;;;19.73;88.49
50434;BME280;36361;38.954;-9.002;2022-07-23T04:23:13;100714.47;;;19.75;88.71
50434;BME280;36361;38.954;-9.002;2022-07-23T04:24:15;100704.56;;;19.79;88.34
50434;BME280;36361;38.954;-9.002;2022-07-23T04:25:16;100706.50;;;19.88;88.44
50434;BME280;36361;38.954;-9.002;2022-07-23T04:26:18;100713.38;;;19.91;87.92
50434;BME280;36361;38.954;-9.002;2022-07-23T04:27:20;100707.31;;;20.04;87.47
50434;BME280;36361;38.954;-9.002;2022-07-23T04:28:22;100711.19;;;20.03;87.21
50434;BME280;36361;38.954;-9.002;2022-07-23T04:29:22;100698.75;;;19.96;87.78
50434;BME280;36361;38.954;-9.002;2022-07-23T04:30:23;100711.16;;;19.93;87.82
50434;BME280;36361;38.954;-9.002;2022-07-23T04:31:24;100708.41;;;19.88;88.06
50434;BME280;36361;38.954;-9.002;2022-07-23T04:32:25;100712.81;;;19.84;88.43
50434;BME280;36361;38.954;-9.002;2022-07-23T04:33:26;100705.91;;;20.07;87.26
50434;BME280;36361;38.954;-9.002;2022-07-23T04:34:29;100707.03;;;20.01;87.45
50434;BME280;36361;38.954;-9.002;2022-07-23T04:35:30;100713.94;;;19.98;87.72
50434;BME280;36361;38.954;-9.002;2022-07-23T04:36:41;100711.72;;;20.10;86.90
50434;BME280;36361;38.954;-9.002;2022-07-23T04:37:42;100715.03;;;20.02;87.23
50434;BME280;36361;38.954;-9.002;2022-07-23T04:38:43;100701.78;;;20.14;86.78
50434;BME280;36361;38.954;-9.002;2022-07-23T04:39:44;100709.50;;;20.23;86.38
50434;BME280;36361;38.954;-9.002;2022-07-23T04:40:46;100703.69;;;20.09;86.97
50434;BME280;36361;38.954;-9.002;2022-07-23T04:41:47;100702.63;;;20.05;86.96
50434;BME280;36361;38.954;-9.002;2022-07-23T04:42:48;100709.53;;;19.97;87.53
50434;BME280;36361;38.954;-9.002;2022-07-23T04:43:49;100707.28;;;19.84;88.14
50434;BME280;36361;38.954;-9.002;2022-07-23T04:44:49;100698.75;;;19.96;87.67
50434;BME280;36361;38.954;-9.002;2022-07-23T04:45:51;100703.44;;;20.05;86.96
50434;BME280;36361;38.954;-9.002;2022-07-23T04:46:52;100701.78;;;19.99;87.48
50434;BME280;36361;38.954;-9.002;2022-07-23T04:47:52;100708.41;;;20.08;87.07
50434;BME280;36361;38.954;-9.002;2022-07-23T04:48:54;100700.13;;;20.08;87.01
50434;BME280;36361;38.954;-9.002;2022-07-23T04:49:54;100706.75;;;19.97;87.46
50434;BME280;36361;38.954;-9.002;2022-07-23T04:50:55;100711.75;;;19.85;87.78
50434;BME280;36361;38.954;-9.002;2022-07-23T04:52:01;100716.69;;;19.83;88.33
50434;BME280;36361;38.954;-9.002;2022-07-23T04:53:03;100718.34;;;19.84;88.37
50434;BME280;36361;38.954;-9.002;2022-07-23T04:54:04;100712.81;;;19.74;88.91
50434;BME280;36361;38.954;-9.002;2022-07-23T04:55:05;100720.56;;;19.82;88.57
50434;BME280;36361;38.954;-9.002;2022-07-23T04:56:06;100707.88;;;19.76;89.01
50434;BME280;36361;38.954;-9.002;2022-07-23T04:57:07;100715.03;;;19.72;89.27
50434;BME280;36361;38.954;-9.002;2022-07-23T04:58:08;100711.16;;;19.73;89.00
50434;BME280;36361;38.954;-9.002;2022-07-23T04:59:08;100715.59;;;19.74;89.08
50434;BME280;36361;38.954;-9.002;2022-07-23T05:00:09;100718.34;;;19.74;89.13
50434;BME280;36361;38.954;-9.002;2022-07-23T05:01:10;100718.09;;;19.80;88.86
50434;BME280;36361;38.954;-9.002;2022-07-23T05:02:12;100718.34;;;19.84;88.52
50434;BME280;36361;38.954;-9.002;2022-07-23T05:03:12;100724.16;;;19.87;88.40
50434;BME280;36361;38.954;-9.002;2022-07-23T05:04:13;100717.81;;;19.77;89.01
50434;BME280;36361;38.954;-9.002;2022-07-23T05:05:15;100720.84;;;19.80;88.59
50434;BME280;36361;38.954;-9.002;2022-07-23T05:06:18;100731.03;;;19.75;88.59
50434;BME280;36361;38.954;-9.002;2022-07-23T05:07:19;100725.53;;;19.75;88.91
50434;BME280;36361;38.954;-9.002;2022-07-23T05:08:19;100723.59;;;19.91;88.15
50434;BME280;36361;38.954;-9.002;2022-07-23T05:09:24;100723.31;;;19.82;88.12
50434;BME280;36361;38.954;-9.002;2022-07-23T05:10:25;100725.56;;;19.85;88.32
50434;BME280;36361;38.954;-9.002;2022-07-23T05:11:26;100729.13;;;19.75;88.72
50434;BME280;36361;38.954;-9.002;2022-07-23T05:12:27;100720.00;;;19.75;88.66
50434;BME280;36361;38.954;-9.002;2022-07-23T05:13:27;100726.94;;;19.77;88.29
50434;BME280;36361;38.954;-9.002;2022-07-23T05:14:28;100725.81;;;19.88;87.72
50434;BME280;36361;38.954;-9.002;2022-07-23T05:15:29;100721.13;;;19.89;87.63
50434;BME280;36361;38.954;-9.002;2022-07-23T05:16:30;100720.56;;;19.87;87.73
50434;BME280;36361;38.954;-9.002;2022-07-23T05:17:36;100723.34;;;19.87;87.69
50434;BME280;36361;38.954;-9.002;2022-07-23T05:18:41;100713.94;;;19.88;87.81
50434;BME280;36361;38.954;-9.002;2022-07-23T05:19:42;100717.00;;;19.76;88.12